Savannah Hilton Head International Airport
KSAV : rendu visible

Aérodrome :











RETROUVEZ-NOUS SUR...

 
LOGIN :

S'inscrire | Disclaimer

   EN    FR    IT 

 









Légende :    VFR   VFR Marginal   IFR   IFR Intensif   IFR Très Intensif
Visi : 
Plafond : 
>= 8 km
>= 3000ft
5 à 8 km
1000 à 3000 ft
1500m à 5 km
500 à 1000 ft
800 à 1500m
200 à 500 ft
< 800m
< 200 ft
Symboles :   Orages  Brouillard  Fortes neiges  Fortes précipitations  Vent > 20 kt






- Altitude de l'aérodrome : 50 ft
- Code IATA : SAV


KSAV - Savannah Hilton Head International

DERNIER METAR :
  • 241453Z 00000KT 10SM BKN065 OVC100 16/11 A3011 RMK AO2 SLP195 T01560106 53002

METARs EXPIRÉS :
  • 241353Z 11003KT 10SM SCT065 OVC100 14/09 A3011 RMK AO2 SLP194 T01390094
  • 241253Z 07003KT 10SM FEW050 FEW065 OVC110 13/10 A3011 RMK AO2 SLP194 T01280100

TAF KSAV
Valide du 24 à 12h jusqu'au 25 à 12h UTC


241130Z 2412/2512 VRB03KT P6SM BKN050 OVC120
FM241800 15008KT P6SM BKN050 OVC110
FM250600 18010KT 6SM -RA BR SCT008 OVC020



MET'MAP, la Météo Aéronautique d'un coup d'oeil ! - Copyright ORBIFLY Décembre 2007 - Disclaimer

ORBIFLY MET'MAP TEAM :

Programmation & Développement : Alexandra Zaïnal
Sur une idée originale de : Baudouin d'Aumeries
Assistance à la programmation : Marc-Olivier Méhu
Soutien technique & logistique : Manuel Goepfert

Contact : metmap@orbifly.com




SOURCES & CREDITS :

   NOAA       Earth
Advisory